Time;durP1;ratioP1;P1;durP2;ratioP2;P2;SDS_P1;SDS_P2;PMS_P1;PMS_P2;Temp;Humidity;BMP_temperature;BMP_pressure;BME280_temperature;BME280_humidity;BME280_pressure;Samples;Min_cycle;Max_cycle;Signal;HPM_P1;HPM_P2
2021/03/11 00:02:28;;;;;;;89.15;36.35;;;;;;;-3.18;55.01;98979.80;258405;1109;23096;-69
2021/03/11 00:07:32;;;;;;;106.90;40.47;;;;;;;-3.33;55.20;98979.91;258526;1108;23023;-71
2021/03/11 00:12:39;;;;;;;123.70;41.87;;;;;;;-3.44;56.05;98973.42;257807;1107;23023;-70
2021/03/11 00:17:42;;;;;;;113.83;40.33;;;;;;;-3.46;56.11;98972.79;257986;1109;24673;-70
2021/03/11 00:22:44;;;;;;;122.93;42.10;;;;;;;-3.51;56.47;98972.55;258313;1109;23084;-69
2021/03/11 00:27:47;;;;;;;86.15;36.20;;;;;;;-3.52;56.58;98966.51;258327;1107;23231;-71
2021/03/11 00:32:50;;;;;;;83.37;33.07;;;;;;;-3.52;56.45;98957.85;258892;1109;23029;-71
2021/03/11 00:37:52;;;;;;;74.30;28.17;;;;;;;-3.50;55.99;98963.69;259003;1109;23060;-70
2021/03/11 00:42:54;;;;;;;69.20;26.60;;;;;;;-3.49;56.24;98952.22;258700;1108;23120;-71
2021/03/11 00:47:57;;;;;;;65.33;26.37;;;;;;;-3.43;56.37;98954.06;259037;1109;23100;-71
2021/03/11 00:53:00;;;;;;;73.67;27.80;;;;;;;-3.42;56.49;98953.06;258750;1109;23281;-70
2021/03/11 00:58:02;;;;;;;77.17;31.53;;;;;;;-3.42;56.30;98947.03;258795;1109;23592;-71
2021/03/11 01:03:05;;;;;;;78.77;32.17;;;;;;;-3.46;56.68;98936.91;258878;1109;23027;-70
2021/03/11 01:08:15;;;;;;;65.67;28.27;;;;;;;-3.54;56.20;98933.65;259188;1108;23074;-70
2021/03/11 01:13:17;;;;;;;71.57;30.13;;;;;;;-3.64;56.36;98934.82;258633;1108;23033;-71
2021/03/11 01:18:20;;;;;;;68.60;29.93;;;;;;;-3.67;57.15;98934.38;259090;1108;23030;-71
2021/03/11 01:23:22;;;;;;;69.47;28.73;;;;;;;-3.75;57.84;98922.23;259095;1109;23337;-70
2021/03/11 01:28:24;;;;;;;75.30;33.27;;;;;;;-3.77;57.51;98919.02;259045;1108;23069;-72
2021/03/11 01:33:27;;;;;;;76.33;31.07;;;;;;;-3.79;57.42;98911.36;258922;1109;23074;-70
2021/03/11 01:38:29;;;;;;;66.90;28.65;;;;;;;-3.75;58.19;98895.26;258643;1107;23083;-70
2021/03/11 01:43:32;;;;;;;61.13;25.03;;;;;;;-3.76;57.75;98885.77;258721;1109;23084;-70
2021/03/11 01:48:35;;;;;;;70.50;30.87;;;;;;;-3.79;58.26;98874.70;258702;1109;23080;-70
2021/03/11 01:53:37;;;;;;;67.20;27.27;;;;;;;-3.84;59.44;98863.19;258819;1109;23027;-70
2021/03/11 01:58:40;;;;;;;91.77;37.30;;;;;;;-3.83;59.40;98864.81;258292;1108;23024;-70
2021/03/11 02:03:43;;;;;;;80.23;33.03;;;;;;;-3.88;59.67;98844.44;258962;1109;22973;-71
2021/03/11 02:08:45;;;;;;;94.50;35.57;;;;;;;-3.93;59.89;98846.84;258925;1108;23033;-69
2021/03/11 02:14:06;;;;;;;79.53;32.97;;;;;;;-3.95;59.96;98848.83;258137;1109;23525;-71
2021/03/11 02:19:35;;;;;;;81.93;34.67;;;;;;;-4.00;60.15;98825.86;257937;1108;23023;-69
2021/03/11 02:25:05;;;;;;;83.37;34.03;;;;;;;-4.03;60.67;98826.25;259166;1108;23034;-69
2021/03/11 02:30:08;;;;;;;102.07;39.47;;;;;;;-4.08;60.43;98831.23;259128;1107;23024;-70
2021/03/11 02:35:12;;;;;;;117.63;44.77;;;;;;;-4.12;61.13;98824.77;259152;1109;23034;-70
2021/03/11 02:40:23;;;;;;;117.57;44.37;;;;;;;-4.16;61.16;98821.72;258689;1109;27781;-69
2021/03/11 02:45:28;;;;;;;117.40;43.53;;;;;;;-4.19;61.69;98808.23;258785;1109;23097;-70
2021/03/11 02:50:32;;;;;;;117.70;42.20;;;;;;;-4.26;61.55;98804.77;258728;1109;23014;-70
2021/03/11 02:55:37;;;;;;;109.85;45.30;;;;;;;-4.32;61.90;98795.88;258950;1109;24595;-69
2021/03/11 03:00:41;;;;;;;107.37;43.17;;;;;;;-4.37;62.29;98793.81;258795;1108;23074;-70
2021/03/11 03:05:44;;;;;;;99.97;42.10;;;;;;;-4.37;63.06;98783.34;258716;1108;23616;-70
2021/03/11 03:10:47;;;;;;;99.53;38.83;;;;;;;-4.33;62.68;98781.17;258890;1109;23080;-70
2021/03/11 03:15:50;;;;;;;91.13;38.83;;;;;;;-4.36;62.45;98782.36;258973;1109;23054;-70
2021/03/11 03:20:53;;;;;;;83.83;35.83;;;;;;;-4.34;62.29;98790.84;258739;1109;26048;-72
2021/03/11 03:25:55;;;;;;;91.83;35.57;;;;;;;-4.34;62.59;98776.94;258026;1109;23092;-71
2021/03/11 03:30:58;;;;;;;85.10;35.10;;;;;;;-4.33;62.94;98771.51;257839;1108;23075;-69
2021/03/11 03:36:01;;;;;;;55.73;25.93;;;;;;;-4.34;63.45;98771.70;257938;1109;23019;-69
2021/03/11 03:41:03;;;;;;;75.55;35.30;;;;;;;-4.30;63.42;98765.09;258046;1109;23080;-70
2021/03/11 03:46:09;;;;;;;73.60;33.60;;;;;;;-4.22;63.58;98756.30;258881;1107;23024;-70
2021/03/11 03:51:15;;;;;;;84.80;36.20;;;;;;;-4.18;63.38;98757.52;259063;1109;23091;-71
2021/03/11 03:56:22;;;;;;;61.53;27.37;;;;;;;-4.14;63.68;98745.64;258665;1109;23007;-69
2021/03/11 04:01:30;;;;;;;72.33;30.73;;;;;;;-4.15;63.15;98736.20;258434;1109;26054;-69
2021/03/11 04:06:34;;;;;;;77.70;33.63;;;;;;;-4.16;63.45;98732.77;257925;1109;24290;-71
2021/03/11 04:11:38;;;;;;;65.50;29.63;;;;;;;-4.18;63.58;98731.36;259074;1109;24396;-71
2021/03/11 04:16:41;;;;;;;70.33;32.77;;;;;;;-4.23;63.30;98721.45;259016;1109;23228;-71
2021/03/11 04:21:45;;;;;;;67.80;32.17;;;;;;;-4.24;64.21;98714.64;258097;1109;23186;-70
2021/03/11 04:26:47;;;;;;;73.03;32.73;;;;;;;-4.24;63.92;98713.81;258139;1107;27508;-70
2021/03/11 04:31:51;;;;;;;91.40;39.13;;;;;;;-4.33;63.79;98706.12;258366;1108;23068;-70
2021/03/11 04:36:54;;;;;;;87.67;40.00;;;;;;;-4.40;64.00;98704.48;258354;1109;23023;-70
2021/03/11 04:41:56;;;;;;;102.43;40.73;;;;;;;-4.41;64.58;98697.63;258797;1109;23033;-70
2021/03/11 04:46:58;;;;;;;70.97;30.93;;;;;;;-4.37;64.99;98698.86;258765;1109;23030;-69
2021/03/11 04:52:01;;;;;;;73.10;33.33;;;;;;;-4.34;64.98;98696.68;258367;1109;23069;-71
2021/03/11 04:57:05;;;;;;;88.23;35.77;;;;;;;-4.36;64.93;98687.41;258260;1108;23067;-70
2021/03/11 05:02:10;;;;;;;94.27;41.33;;;;;;;-4.40;64.61;98684.36;258402;1107;25168;-70
2021/03/11 05:07:14;;;;;;;77.47;33.67;;;;;;;-4.43;65.41;98682.13;258264;1108;23098;-71
2021/03/11 05:12:17;;;;;;;92.90;41.03;;;;;;;-4.43;65.21;98663.83;259154;1107;23026;-71
2021/03/11 05:17:19;;;;;;;83.10;40.23;;;;;;;-4.37;65.57;98668.27;259103;1108;23030;-70
2021/03/11 05:22:24;;;;;;;88.30;38.73;;;;;;;-4.37;65.65;98665.66;259327;1109;23025;-69
2021/03/11 05:27:26;;;;;;;79.47;36.17;;;;;;;-4.36;65.54;98658.64;258729;1109;23154;-70
2021/03/11 05:32:28;;;;;;;90.95;42.15;;;;;;;-4.30;65.68;98642.95;259087;1109;23030;-71
2021/03/11 05:37:30;;;;;;;99.83;42.93;;;;;;;-4.21;66.01;98638.38;258765;1108;23091;-71
2021/03/11 05:42:34;;;;;;;88.60;39.00;;;;;;;-4.10;65.62;98621.28;258735;1108;24823;-70
2021/03/11 05:47:36;;;;;;;84.47;37.50;;;;;;;-3.93;65.72;98613.91;258909;1109;24584;-71
2021/03/11 05:52:40;;;;;;;97.53;41.43;;;;;;;-3.77;65.24;98614.54;258837;1109;23027;-71
2021/03/11 05:57:44;;;;;;;74.80;35.97;;;;;;;-3.64;65.31;98594.42;258583;1109;23083;-71
2021/03/11 06:02:54;;;;;;;81.47;35.23;;;;;;;-3.43;64.96;98600.45;259016;1109;23024;-71
2021/03/11 06:07:57;;;;;;;;;;;;;;;-3.24;64.60;98595.42;258955;1109;23086;-70
2021/03/11 06:12:59;;;;;;;85.43;35.93;;;;;;;-3.01;64.40;98584.50;259221;1109;21675;-71
2021/03/11 06:18:06;;;;;;;83.77;36.37;;;;;;;-2.82;64.01;98572.36;258686;1107;23033;-71
2021/03/11 06:23:09;;;;;;;84.93;37.10;;;;;;;-2.64;63.49;98569.08;258881;1109;23026;-71
2021/03/11 06:28:11;;;;;;;83.53;38.17;;;;;;;-2.47;63.55;98569.41;259001;1109;23208;-71
2021/03/11 06:33:13;;;;;;;64.05;29.40;;;;;;;-2.30;63.09;98557.41;257749;1108;23018;-71
2021/03/11 06:38:33;;;;;;;69.80;32.07;;;;;;;-2.13;63.16;98551.67;258683;1109;23443;-70
2021/03/11 06:44:01;;;;;;;57.67;25.90;;;;;;;-1.86;62.06;98541.83;259028;1108;23076;-70
2021/03/11 06:49:11;;;;;;;56.35;27.50;;;;;;;-1.53;62.08;98534.70;259296;1109;23160;-69
2021/03/11 06:54:16;;;;;;;46.27;21.73;;;;;;;-1.21;60.60;98532.78;259562;1107;23083;-74
2021/03/11 06:59:22;;;;;;;42.23;20.93;;;;;;;-0.89;59.97;98536.08;260125;1108;23042;-73
2021/03/11 07:04:24;;;;;;;39.33;18.27;;;;;;;-0.53;59.47;98542.34;260283;1107;23100;-74
2021/03/11 07:09:39;;;;;;;40.47;17.37;;;;;;;-0.20;58.85;98538.49;259190;1108;26406;-74
2021/03/11 07:14:42;;;;;;;40.37;18.17;;;;;;;0.10;58.26;98532.38;259401;1109;23067;-74
2021/03/11 07:20:06;;;;;;;34.57;17.80;;;;;;;0.38;57.32;98533.58;259264;1108;23087;-75
2021/03/11 07:25:47;;;;;;;34.33;17.70;;;;;;;0.55;56.68;98538.98;260163;1107;23027;-75
2021/03/11 07:30:53;;;;;;;35.60;18.33;;;;;;;0.82;55.95;98512.94;259564;1108;23029;-75
2021/03/11 07:35:58;;;;;;;34.30;18.15;;;;;;;1.08;55.10;98520.58;260212;1108;23195;-74
2021/03/11 07:41:03;;;;;;;34.03;16.87;;;;;;;1.34;55.02;98519.27;259410;1109;23090;-74
2021/03/11 07:46:06;;;;;;;36.00;16.47;;;;;;;1.57;54.41;98510.48;259446;1107;23084;-74
2021/03/11 07:51:11;;;;;;;43.27;20.60;;;;;;;1.81;53.63;98503.24;259718;1109;23175;-75
2021/03/11 07:56:14;;;;;;;38.93;20.93;;;;;;;2.08;54.16;98499.20;259234;1108;23161;-75
2021/03/11 08:01:19;;;;;;;45.17;22.40;;;;;;;2.26;52.52;98488.39;259387;1109;23025;-74
2021/03/11 08:06:26;;;;;;;40.25;21.05;;;;;;;2.46;52.44;98471.23;259513;1107;23073;-75
2021/03/11 08:11:36;;;;;;;45.97;22.63;;;;;;;2.65;52.56;98474.42;259406;1107;23014;-74
2021/03/11 08:16:38;;;;;;;46.77;24.27;;;;;;;2.88;52.22;98460.16;259519;1109;23107;-74
2021/03/11 08:21:43;;;;;;;43.83;22.67;;;;;;;3.19;52.07;98460.52;259455;1108;23241;-73
2021/03/11 08:26:45;;;;;;;47.97;24.77;;;;;;;3.16;51.81;98453.90;259031;1109;22997;-74
2021/03/11 08:32:43;;;;;;;45.37;24.30;;;;;;;3.29;51.54;98441.30;259356;1109;23737;-74
2021/03/11 08:37:46;;;;;;;47.17;23.23;;;;;;;3.57;51.15;98430.48;259483;1109;23226;-73
2021/03/11 08:42:49;;;;;;;43.30;21.70;;;;;;;3.73;50.09;98420.02;259376;1109;23090;-74
2021/03/11 08:48:12;;;;;;;44.50;22.83;;;;;;;3.82;50.70;98413.22;259427;1109;23071;-73
2021/03/11 08:53:36;;;;;;;39.90;22.07;;;;;;;4.00;50.48;98388.19;259049;1108;23312;-74
2021/03/11 08:58:50;;;;;;;39.13;20.30;;;;;;;4.20;50.11;98390.16;259060;1109;23016;-74
2021/03/11 09:03:52;;;;;;;39.07;22.63;;;;;;;4.33;49.97;98375.64;259311;1109;23233;-73
2021/03/11 09:08:55;;;;;;;39.17;20.90;;;;;;;4.37;49.26;98378.59;259443;1109;27808;-74
2021/03/11 09:13:57;;;;;;;41.00;20.10;;;;;;;4.37;49.25;98357.38;259651;1109;23326;-75
2021/03/11 09:18:59;;;;;;;37.50;19.60;;;;;;;4.43;48.93;98346.52;259337;1108;24499;-75
2021/03/11 09:24:03;;;;;;;37.53;18.53;;;;;;;4.45;48.86;98325.84;259141;1109;23216;-74
2021/03/11 09:29:05;;;;;;;28.55;15.45;;;;;;;4.42;48.02;98310.46;259297;1108;23299;-76
2021/03/11 09:34:07;;;;;;;30.20;15.10;;;;;;;4.48;48.02;98311.27;259082;1109;23093;-76
2021/03/11 09:39:09;;;;;;;26.77;13.57;;;;;;;4.53;48.23;98299.88;259500;1108;23090;-75
2021/03/11 09:44:12;;;;;;;25.60;14.47;;;;;;;4.60;47.77;98281.86;259069;1107;23054;-76
2021/03/11 09:49:21;;;;;;;25.27;13.43;;;;;;;4.65;47.32;98267.83;259402;1108;22998;-75
2021/03/11 09:54:23;;;;;;;29.48;13.35;;;;;;;4.80;47.42;98260.69;259115;1109;26036;-75
2021/03/11 09:59:25;;;;;;;23.80;12.93;;;;;;;4.97;47.33;98260.44;259254;1109;23861;-76
2021/03/11 10:04:28;;;;;;;26.73;14.43;;;;;;;5.05;47.37;98247.70;259159;1108;23011;-75
2021/03/11 10:09:39;;;;;;;25.90;12.40;;;;;;;5.16;46.48;98245.86;259323;1108;23080;-75
2021/03/11 10:14:43;;;;;;;23.03;11.77;;;;;;;5.17;46.38;98227.00;259661;1108;26041;-75
2021/03/11 10:19:46;;;;;;;25.53;12.00;;;;;;;5.12;45.09;98232.30;259172;1109;23087;-76
2021/03/11 10:24:50;;;;;;;25.95;13.80;;;;;;;4.87;45.43;98214.50;259315;1109;23060;-75
2021/03/11 10:30:09;;;;;;;23.77;14.27;;;;;;;4.93;46.18;98206.29;259435;1108;22999;-76
2021/03/11 10:35:24;;;;;;;25.93;13.90;;;;;;;5.08;45.75;98205.50;260071;1109;23689;-75
2021/03/11 10:40:26;;;;;;;23.50;13.10;;;;;;;5.17;45.57;98200.45;260870;1108;23206;-76
2021/03/11 10:45:38;;;;;;;24.67;12.63;;;;;;;5.19;45.28;98200.17;259900;1109;23670;-76
2021/03/11 10:50:43;;;;;;;28.50;12.10;;;;;;;5.17;45.32;98200.45;259988;1109;23090;-75
2021/03/11 10:55:48;;;;;;;33.37;14.93;;;;;;;4.97;44.93;98191.42;259840;1109;23016;-75
2021/03/11 11:00:50;;;;;;;22.17;13.17;;;;;;;4.94;45.55;98175.25;263055;1109;23024;-74
2021/03/11 11:05:53;;;;;;;28.80;13.53;;;;;;;4.96;46.36;98168.59;260107;1109;23026;-76
2021/03/11 11:10:55;;;;;;;26.37;13.90;;;;;;;4.96;46.16;98155.31;259994;1107;23468;-73
2021/03/11 11:15:58;;;;;;;26.00;14.53;;;;;;;4.89;46.44;98148.70;259626;1109;23079;-74
2021/03/11 11:21:01;;;;;;;25.33;14.07;;;;;;;4.76;45.59;98150.03;259868;1109;23317;-74
2021/03/11 11:26:03;;;;;;;33.90;17.60;;;;;;;4.63;46.21;98135.41;261114;1109;23000;-75
2021/03/11 11:31:05;;;;;;;33.70;17.23;;;;;;;4.63;46.45;98130.92;259061;1109;23229;-73
2021/03/11 11:36:09;;;;;;;28.90;15.20;;;;;;;4.67;46.72;98114.47;259030;1108;26131;-73
2021/03/11 11:41:12;;;;;;;25.83;13.50;;;;;;;4.73;45.79;98118.70;259438;1109;23041;-74
2021/03/11 11:46:14;;;;;;;16.97;10.37;;;;;;;4.75;46.80;98105.98;259114;1109;23097;-73
2021/03/11 11:51:16;;;;;;;20.07;9.63;;;;;;;4.73;47.75;98108.90;259462;1109;23081;-74
2021/03/11 11:56:19;;;;;;;14.80;9.25;;;;;;;4.72;47.94;98115.27;259369;1109;23099;-74
2021/03/11 12:01:21;;;;;;;25.97;9.27;;;;;;;4.56;54.91;98122.44;259348;1108;23468;-74
2021/03/11 12:06:23;;;;;;;18.00;10.90;;;;;;;4.01;61.49;98103.52;259780;1109;23283;-74
2021/03/11 12:11:26;;;;;;;17.10;10.37;;;;;;;3.62;66.66;98105.78;259217;1108;23154;-73
2021/03/11 12:16:28;;;;;;;18.10;11.20;;;;;;;3.15;68.96;98089.67;261346;1109;26069;-74
2021/03/11 12:21:31;;;;;;;20.70;11.17;;;;;;;2.72;67.04;98086.23;259777;1109;23106;-73
2021/03/11 12:26:33;;;;;;;20.50;12.53;;;;;;;2.53;65.71;98076.05;259129;1109;23056;-73
2021/03/11 12:31:36;;;;;;;23.00;11.55;;;;;;;2.42;65.89;98060.34;259498;1109;23080;-73
2021/03/11 12:36:40;;;;;;;19.10;11.30;;;;;;;2.16;67.18;98060.92;259625;1109;26371;-75
2021/03/11 12:41:43;;;;;;;16.63;10.03;;;;;;;2.03;67.49;98053.42;259320;1109;23519;-74
2021/03/11 12:46:45;;;;;;;28.03;14.57;;;;;;;1.99;68.09;98033.83;259129;1109;22986;-76
2021/03/11 12:51:47;;;;;;;31.17;15.43;;;;;;;1.99;68.02;98017.98;259231;1109;23018;-75
2021/03/11 12:56:49;;;;;;;28.17;14.97;;;;;;;2.02;68.18;98002.41;259203;1108;23033;-75
2021/03/11 13:01:51;;;;;;;29.30;16.37;;;;;;;2.05;68.18;98004.55;259195;1108;23091;-75
2021/03/11 13:06:53;;;;;;;23.13;14.73;;;;;;;2.10;68.43;97977.39;259458;1108;23030;-75
2021/03/11 13:11:55;;;;;;;24.77;14.80;;;;;;;2.18;68.64;97953.14;259148;1109;23167;-76
2021/03/11 13:16:58;;;;;;;27.30;14.95;;;;;;;2.26;69.09;97935.22;259180;1108;23014;-75
2021/03/11 13:22:00;;;;;;;30.80;17.03;;;;;;;2.29;69.30;97924.91;259528;1109;23254;-75
2021/03/11 13:27:02;;;;;;;27.87;16.37;;;;;;;2.28;69.57;97930.45;259252;1109;23004;-75
2021/03/11 13:32:06;;;;;;;25.30;14.55;;;;;;;2.30;69.70;97934.44;259230;1108;23074;-76
2021/03/11 13:37:08;;;;;;;25.77;14.67;;;;;;;2.34;69.71;97932.09;259782;1108;23251;-74
2021/03/11 13:42:14;;;;;;;27.23;15.87;;;;;;;2.36;70.20;97914.13;259593;1109;23229;-74
2021/03/11 13:47:17;;;;;;;23.87;14.90;;;;;;;2.38;70.28;97872.39;260093;1108;23077;-75
2021/03/11 13:52:19;;;;;;;28.63;16.17;;;;;;;2.44;71.34;97871.34;259724;1109;23008;-75
2021/03/11 13:57:21;;;;;;;30.03;16.73;;;;;;;2.46;70.81;97869.23;259999;1109;23307;-74
2021/03/11 14:02:24;;;;;;;28.50;15.95;;;;;;;2.47;71.08;97843.61;259784;1108;23086;-74
2021/03/11 14:07:28;;;;;;;29.97;16.10;;;;;;;2.47;71.61;97836.46;259852;1107;23028;-74
2021/03/11 14:12:31;;;;;;;33.53;18.97;;;;;;;2.54;70.71;97820.37;259641;1109;23009;-74
2021/03/11 14:17:34;;;;;;;31.07;19.40;;;;;;;2.63;71.84;97813.53;259666;1109;23030;-75
2021/03/11 14:22:36;;;;;;;32.57;18.90;;;;;;;2.71;71.79;97797.16;259457;1109;24275;-74
2021/03/11 14:27:38;;;;;;;29.60;16.53;;;;;;;2.82;71.80;97760.92;259248;1107;23024;-75
2021/03/11 14:32:41;;;;;;;29.57;17.23;;;;;;;2.90;71.28;97749.05;259136;1108;22998;-75
2021/03/11 14:37:43;;;;;;;29.80;18.10;;;;;;;2.94;71.29;97741.36;259140;1109;23006;-75
2021/03/11 14:42:46;;;;;;;35.83;20.10;;;;;;;2.86;71.90;97746.13;259282;1109;23482;-75
2021/03/11 14:47:48;;;;;;;31.97;17.07;;;;;;;2.68;71.17;97750.06;259202;1109;27841;-75
2021/03/11 14:52:51;;;;;;;38.17;21.40;;;;;;;2.56;72.85;97765.36;259418;1108;23446;-75
2021/03/11 14:57:53;;;;;;;35.30;19.83;;;;;;;2.47;72.50;97785.45;259209;1107;23992;-73
2021/03/11 15:02:55;;;;;;;42.23;21.03;;;;;;;2.43;72.24;97800.23;259890;1108;23233;-78
2021/03/11 15:07:57;;;;;;;35.40;18.97;;;;;;;2.35;73.22;97797.04;260004;1107;23826;-75
2021/03/11 15:12:59;;;;;;;36.53;20.63;;;;;;;2.28;72.63;97799.13;259603;1108;23058;-75
2021/03/11 15:18:05;;;;;;;35.53;18.77;;;;;;;2.29;72.87;97794.62;259407;1108;23510;-76
2021/03/11 15:23:08;;;;;;;36.30;19.85;;;;;;;2.23;72.99;97777.95;259311;1108;23612;-75
2021/03/11 15:28:11;;;;;;;32.47;16.67;;;;;;;2.26;73.02;97774.01;259434;1109;23089;-76
2021/03/11 15:33:13;;;;;;;34.93;18.03;;;;;;;2.28;73.58;97761.31;259106;1109;23034;-75
2021/03/11 15:38:18;;;;;;;32.87;18.63;;;;;;;2.33;73.41;97761.34;258881;1109;23031;-75
2021/03/11 15:43:20;;;;;;;36.00;19.57;;;;;;;2.40;73.51;97759.25;259034;1109;23229;-75
2021/03/11 15:48:23;;;;;;;37.10;18.03;;;;;;;2.47;74.14;97756.37;259200;1109;23087;-74
2021/03/11 15:53:27;;;;;;;36.00;19.23;;;;;;;2.42;74.40;97741.30;258971;1107;23503;-75
2021/03/11 15:58:30;;;;;;;37.70;20.97;;;;;;;2.43;74.49;97731.50;259304;1109;23083;-77
2021/03/11 16:03:32;;;;;;;31.80;17.43;;;;;;;2.40;74.33;97735.46;259140;1108;22990;-75
2021/03/11 16:08:34;;;;;;;36.60;19.80;;;;;;;2.36;74.78;97700.81;258865;1109;23151;-75
2021/03/11 16:13:37;;;;;;;31.77;17.53;;;;;;;2.36;75.15;97708.73;258961;1108;23034;-74
2021/03/11 16:18:39;;;;;;;27.03;14.77;;;;;;;2.41;74.95;97718.55;258827;1107;23104;-74
2021/03/11 16:23:42;;;;;;;43.60;24.65;;;;;;;2.52;75.52;97709.59;258774;1109;23031;-75
2021/03/11 16:28:44;;;;;;;29.10;16.37;;;;;;;2.61;75.09;97703.78;258786;1109;23080;-76
2021/03/11 16:33:46;;;;;;;26.47;14.50;;;;;;;2.61;74.61;97662.27;258779;1109;23090;-76
2021/03/11 16:38:48;;;;;;;27.10;14.47;;;;;;;2.61;74.77;97637.69;258889;1109;23205;-75
2021/03/11 16:43:50;;;;;;;23.80;14.20;;;;;;;2.59;75.52;97581.61;259069;1109;23097;-74
2021/03/11 16:48:52;;;;;;;28.23;14.23;;;;;;;2.55;75.68;97631.60;258812;1108;22987;-76
2021/03/11 16:53:54;;;;;;;26.95;15.15;;;;;;;2.58;75.54;97622.35;258748;1108;23026;-75
2021/03/11 16:58:57;;;;;;;24.90;13.93;;;;;;;2.62;76.27;97657.78;259244;1109;23018;-75
2021/03/11 17:03:59;;;;;;;26.40;15.13;;;;;;;2.67;75.72;97647.19;258910;1109;23024;-74
2021/03/11 17:09:02;;;;;;;30.50;16.03;;;;;;;2.72;75.42;97663.07;259008;1108;23010;-75
2021/03/11 17:14:04;;;;;;;23.40;13.37;;;;;;;2.79;76.04;97665.45;258851;1109;22989;-75
2021/03/11 17:19:06;;;;;;;27.13;14.60;;;;;;;2.85;76.01;97654.59;259147;1109;23085;-74
2021/03/11 17:24:09;;;;;;;34.93;16.83;;;;;;;2.91;75.00;97650.90;258996;1107;23171;-75
2021/03/11 17:29:11;;;;;;;27.85;15.15;;;;;;;3.02;75.80;97627.07;259111;1109;23239;-76
2021/03/11 17:34:13;;;;;;;23.70;12.03;;;;;;;3.14;75.79;97614.35;259116;1109;23037;-75
2021/03/11 17:39:18;;;;;;;24.13;13.60;;;;;;;3.27;76.12;97618.29;259215;1109;23079;-76
2021/03/11 17:44:20;;;;;;;24.90;12.90;;;;;;;3.38;75.92;97608.47;258867;1109;23097;-76
2021/03/11 17:49:23;;;;;;;23.85;12.55;;;;;;;3.46;75.91;97602.63;258755;1109;23084;-75
2021/03/11 17:54:25;;;;;;;20.93;11.80;;;;;;;3.52;75.82;97596.23;259029;1108;23377;-75
2021/03/11 17:59:27;;;;;;;22.73;12.50;;;;;;;3.60;75.67;97600.97;259042;1108;23083;-75
2021/03/11 18:04:30;;;;;;;25.97;15.53;;;;;;;3.66;75.49;97587.72;259235;1109;23097;-77
2021/03/11 18:09:38;;;;;;;23.60;13.30;;;;;;;3.70;75.38;97581.59;258999;1109;23168;-74
2021/03/11 18:14:40;;;;;;;26.03;14.33;;;;;;;3.75;74.76;97594.05;259055;1109;23660;-76
2021/03/11 18:19:42;;;;;;;25.43;13.23;;;;;;;3.80;75.01;97566.72;258740;1108;23226;-75
2021/03/11 18:24:44;;;;;;;25.33;13.83;;;;;;;3.87;75.39;97565.34;258821;1109;23222;-76
2021/03/11 18:29:46;;;;;;;24.75;12.95;;;;;;;3.91;74.73;97576.98;259174;1109;23151;-74
2021/03/11 18:34:50;;;;;;;31.25;16.90;;;;;;;3.94;75.16;97583.59;258994;1109;23074;-75
2021/03/11 18:39:59;;;;;;;36.20;18.87;;;;;;;3.88;74.06;97566.16;258983;1109;23134;-75
2021/03/11 18:45:01;;;;;;;38.63;21.03;;;;;;;3.84;74.40;97560.59;258800;1109;23083;-75
2021/03/11 18:50:04;;;;;;;45.87;22.83;;;;;;;3.85;74.51;97530.39;258857;1108;23056;-75
2021/03/11 18:55:07;;;;;;;45.90;24.90;;;;;;;3.89;74.24;97496.98;259066;1109;26102;-74
2021/03/11 19:00:15;;;;;;;48.05;25.50;;;;;;;3.80;74.12;97474.78;259119;1107;23838;-74
2021/03/11 19:05:18;;;;;;;49.60;25.63;;;;;;;3.62;73.74;97468.28;259292;1108;23080;-74
2021/03/11 19:10:22;;;;;;;39.03;21.03;;;;;;;3.42;73.92;97461.27;258834;1109;23024;-74
2021/03/11 19:15:25;;;;;;;46.07;23.40;;;;;;;3.19;74.35;97468.80;258983;1109;26149;-75
2021/03/11 19:20:32;;;;;;;39.70;20.80;;;;;;;3.01;73.91;97456.95;258908;1109;23345;-74
2021/03/11 19:25:35;;;;;;;27.73;12.93;;;;;;;2.93;76.84;97444.30;259380;1109;26544;-74
2021/03/11 19:30:41;;;;;;;23.67;12.13;;;;;;;3.12;76.42;97465.66;259127;1109;23097;-75
2021/03/11 19:35:44;;;;;;;21.00;11.10;;;;;;;3.32;76.51;97458.68;259047;1109;23030;-75
2021/03/11 19:40:48;;;;;;;23.27;11.67;;;;;;;3.45;76.41;97438.75;259145;1109;23026;-75
2021/03/11 19:45:52;;;;;;;20.57;12.73;;;;;;;3.52;75.53;97433.93;259320;1108;23078;-75
2021/03/11 19:50:56;;;;;;;23.60;12.83;;;;;;;3.52;75.10;97413.53;258958;1109;23019;-74
2021/03/11 19:55:58;;;;;;;21.30;11.97;;;;;;;3.51;75.34;97416.45;258922;1108;26405;-75
2021/03/11 20:01:00;;;;;;;22.13;11.07;;;;;;;3.50;74.74;97415.67;259148;1109;23083;-75
2021/03/11 20:06:02;;;;;;;20.80;11.83;;;;;;;3.56;75.67;97400.55;258815;1109;23225;-75
2021/03/11 20:11:09;;;;;;;26.90;12.35;;;;;;;3.68;74.94;97395.69;258843;1109;23188;-78
2021/03/11 20:16:12;;;;;;;24.43;13.03;;;;;;;3.82;75.22;97381.80;259065;1108;23215;-75
2021/03/11 20:21:15;;;;;;;25.53;12.57;;;;;;;3.93;74.70;97386.73;258954;1109;23097;-76
2021/03/11 20:26:21;;;;;;;21.63;11.50;;;;;;;4.08;74.93;97369.11;259287;1109;23083;-74
2021/03/11 20:31:23;;;;;;;22.03;12.37;;;;;;;4.23;74.45;97373.48;259182;1109;23278;-74
2021/03/11 20:36:26;;;;;;;21.30;12.20;;;;;;;4.35;74.51;97375.73;259082;1109;23074;-78
2021/03/11 20:41:38;;;;;;;21.37;11.87;;;;;;;4.42;74.22;97361.08;259220;1109;23232;-75
2021/03/11 20:46:44;;;;;;;22.20;11.43;;;;;;;4.47;74.14;97352.27;258765;1108;23129;-75
2021/03/11 20:51:48;;;;;;;18.35;10.60;;;;;;;4.52;74.00;97343.45;259001;1109;23229;-74
2021/03/11 20:56:50;;;;;;;22.40;12.85;;;;;;;4.58;73.80;97337.80;258980;1108;22991;-74
2021/03/11 21:01:52;;;;;;;24.00;12.40;;;;;;;4.62;73.81;97333.52;258791;1109;23079;-74
2021/03/11 21:06:54;;;;;;;20.90;11.30;;;;;;;4.68;73.81;97334.23;258908;1109;23229;-75
2021/03/11 21:12:04;;;;;;;20.12;11.70;;;;;;;4.76;73.74;97330.17;258758;1108;23223;-75
2021/03/11 21:17:06;;;;;;;21.60;12.77;;;;;;;4.82;73.62;97326.37;259019;1109;23022;-74
2021/03/11 21:22:10;;;;;;;25.53;14.67;;;;;;;4.87;73.17;97344.88;259182;1107;23239;-75
2021/03/11 21:27:13;;;;;;;26.37;14.57;;;;;;;4.91;73.18;97353.05;259275;1109;23258;-74
2021/03/11 21:32:15;;;;;;;26.93;14.73;;;;;;;4.96;73.11;97353.77;259113;1109;23352;-74
2021/03/11 21:37:17;;;;;;;26.23;13.77;;;;;;;5.00;73.10;97380.53;259085;1107;23014;-75
2021/03/11 21:42:29;;;;;;;23.33;13.20;;;;;;;4.97;72.95;97378.45;259178;1108;23024;-74
2021/03/11 21:47:31;;;;;;;28.10;15.10;;;;;;;4.97;73.27;97389.84;259089;1109;23023;-76
2021/03/11 21:52:38;;;;;;;23.67;14.53;;;;;;;5.03;73.46;97400.41;259171;1109;23021;-75
2021/03/11 21:57:42;;;;;;;28.15;15.60;;;;;;;5.06;73.11;97378.60;258730;1109;23468;-74
2021/03/11 22:02:45;;;;;;;32.07;17.43;;;;;;;5.05;73.57;97379.66;258783;1109;23067;-74
2021/03/11 22:07:48;;;;;;;35.60;18.63;;;;;;;4.97;73.23;97400.47;259153;1109;23248;-75
2021/03/11 22:12:50;;;;;;;31.37;17.63;;;;;;;4.85;73.46;97378.08;259066;1109;25578;-75
2021/03/11 22:17:53;;;;;;;27.00;16.07;;;;;;;4.68;73.56;97359.98;258753;1109;23100;-75
2021/03/11 22:22:55;;;;;;;29.23;15.63;;;;;;;4.52;74.24;97360.17;258748;1109;26079;-75
2021/03/11 22:27:58;;;;;;;27.83;16.33;;;;;;;4.35;74.81;97354.52;258743;1109;26905;-74
2021/03/11 22:33:02;;;;;;;29.63;16.47;;;;;;;4.18;75.04;97361.05;259041;1109;23151;-75
2021/03/11 22:38:06;;;;;;;28.25;16.25;;;;;;;4.09;75.62;97355.58;259104;1109;23008;-75
2021/03/11 22:43:19;;;;;;;26.20;15.00;;;;;;;3.97;76.87;97363.11;258794;1109;23151;-75
2021/03/11 22:48:21;;;;;;;28.60;16.03;;;;;;;3.84;77.44;97308.92;258983;1109;23203;-74
2021/03/11 22:53:23;;;;;;;28.23;16.17;;;;;;;3.76;77.59;97290.98;258930;1109;23074;-75
2021/03/11 22:58:26;;;;;;;27.67;14.23;;;;;;;3.70;78.71;97324.67;258629;1109;23206;-75
2021/03/11 23:03:28;;;;;;;25.50;13.17;;;;;;;3.75;80.84;97342.41;258700;1109;23014;-75
2021/03/11 23:08:31;;;;;;;23.07;13.97;;;;;;;3.82;79.38;97361.41;258816;1109;22988;-74
2021/03/11 23:13:36;;;;;;;24.80;13.40;;;;;;;3.93;80.59;97359.44;259126;1106;23029;-75